createdAt,value
2023-05-23T00:01:33.795Z,7.00
2023-05-23T00:07:02.837Z,6.55
2023-05-23T00:09:32.617Z,7.53
2023-05-23T00:12:00.962Z,6.20
2023-05-23T00:14:46.497Z,10.05
2023-05-23T00:17:33.430Z,8.50
2023-05-23T00:20:01.549Z,13.20
2023-05-23T00:22:29.916Z,7.45
2023-05-23T00:25:02.237Z,8.02
2023-05-23T00:31:12.420Z,6.62
2023-05-23T00:34:00.376Z,7.45
2023-05-23T00:36:28.490Z,8.30
2023-05-23T00:38:56.712Z,7.95
2023-05-23T00:41:33.271Z,8.82
2023-05-23T00:44:01.794Z,6.15
2023-05-23T00:46:31.027Z,7.47
2023-05-23T00:51:53.962Z,8.38
2023-05-23T00:55:05.688Z,6.43
2023-05-23T00:57:35.662Z,8.48
2023-05-23T01:00:04.723Z,8.48
2023-05-23T01:02:36.770Z,6.50
2023-05-23T01:05:05.300Z,8.43
2023-05-23T01:07:33.634Z,5.97
2023-05-23T01:10:01.870Z,6.18
2023-05-23T01:12:37.465Z,7.70
2023-05-23T01:15:10.674Z,6.55
2023-05-23T01:17:48.904Z,8.13
2023-05-23T01:20:21.020Z,8.85
2023-05-23T01:23:23.380Z,6.62
2023-05-23T01:26:14.799Z,7.32
2023-05-23T01:28:48.149Z,7.40
2023-05-23T01:31:18.303Z,10.20
2023-05-23T01:33:50.096Z,8.82
2023-05-23T01:36:19.500Z,11.63
2023-05-23T01:38:47.828Z,7.80
2023-05-23T01:41:16.405Z,8.00
2023-05-23T01:43:46.392Z,10.23
2023-05-23T01:46:15.613Z,6.35
2023-05-23T01:48:44.390Z,10.85
2023-05-23T01:51:13.330Z,8.43
2023-05-23T01:53:41.957Z,7.50
2023-05-23T01:56:10.487Z,9.70
2023-05-23T01:58:39.006Z,9.75
2023-05-23T02:01:08.683Z,8.77
2023-05-23T02:03:38.008Z,7.87
2023-05-23T02:06:13.070Z,8.70
2023-05-23T02:08:58.534Z,7.78
2023-05-23T02:11:26.949Z,7.65
2023-05-23T02:13:55.381Z,7.78
2023-05-23T02:17:07.768Z,6.43
2023-05-23T02:23:01.209Z,8.45
2023-05-23T02:25:48.133Z,8.75
2023-05-23T02:32:10.707Z,10.35
2023-05-23T02:35:37.490Z,7.68
2023-05-23T02:38:07.016Z,6.70
2023-05-23T02:40:35.341Z,6.95
2023-05-23T02:43:03.649Z,6.10
2023-05-23T02:45:32.004Z,7.97
2023-05-23T02:48:00.758Z,7.85
2023-05-23T02:50:43.760Z,6.78
2023-05-23T02:53:13.636Z,7.45
2023-05-23T02:55:43.104Z,8.27
2023-05-23T02:58:46.250Z,10.13
2023-05-23T03:04:41.651Z,8.18
2023-05-23T03:07:20.377Z,7.60
2023-05-23T03:09:54.317Z,8.20
2023-05-23T03:12:25.757Z,6.60
2023-05-23T03:14:54.994Z,7.22
2023-05-23T03:17:23.289Z,12.57
2023-05-23T03:23:17.090Z,8.57
2023-05-23T03:26:08.685Z,11.65
2023-05-23T03:28:52.985Z,8.50
2023-05-23T03:31:21.341Z,7.93
2023-05-23T03:33:50.111Z,8.23
2023-05-23T03:36:36.040Z,9.85
2023-05-23T03:39:12.483Z,8.18
2023-05-23T03:41:42.046Z,7.65
2023-05-23T03:47:07.343Z,7.65
2023-05-23T03:49:36.422Z,8.57
2023-05-23T03:52:04.849Z,8.63
2023-05-23T03:54:39.572Z,10.32
2023-05-23T03:57:10.172Z,8.38
2023-05-23T04:00:17.850Z,8.60
2023-05-23T04:02:47.397Z,10.75
2023-05-23T04:05:16.786Z,8.60
2023-05-23T04:07:46.880Z,13.23
2023-05-23T04:10:33.651Z,13.15
2023-05-23T04:13:17.387Z,13.82
2023-05-23T04:15:50.119Z,9.82
2023-05-23T04:18:18.946Z,21.65
2023-05-23T04:20:48.023Z,14.65
2023-05-23T04:23:16.120Z,17.37
2023-05-23T04:25:44.849Z,12.65
2023-05-23T04:28:17.872Z,18.65
2023-05-23T04:31:04.274Z,13.43
2023-05-23T04:33:34.453Z,12.52
2023-05-23T04:36:09.179Z,11.98
2023-05-23T04:38:38.573Z,11.12
2023-05-23T04:41:11.415Z,12.98
2023-05-23T04:43:42.761Z,11.98
2023-05-23T04:46:11.238Z,13.50
2023-05-23T04:48:39.612Z,11.43
2023-05-23T04:51:08.731Z,15.00
2023-05-23T04:53:39.390Z,13.93
2023-05-23T04:56:09.900Z,11.30
2023-05-23T04:58:52.639Z,10.73
2023-05-23T05:01:24.652Z,10.25
2023-05-23T05:03:53.309Z,9.32
2023-05-23T05:06:22.186Z,10.55
2023-05-23T05:08:50.617Z,14.00
2023-05-23T05:11:18.761Z,15.50
2023-05-23T05:14:01.698Z,15.98
2023-05-23T05:16:31.904Z,15.63
2023-05-23T05:19:01.820Z,19.23
2023-05-23T05:21:54.369Z,19.40
2023-05-23T05:24:22.868Z,20.58
2023-05-23T05:26:51.312Z,18.25
2023-05-23T05:29:44.340Z,23.20
2023-05-23T05:32:34.008Z,25.05
2023-05-23T05:35:07.879Z,25.02
2023-05-23T05:37:37.833Z,21.02
2023-05-23T05:40:08.524Z,24.52
2023-05-23T05:42:37.193Z,19.33
2023-05-23T05:45:06.699Z,21.52
2023-05-23T05:50:48.076Z,23.15
2023-05-23T05:53:16.421Z,23.05
2023-05-23T05:55:44.503Z,26.45
2023-05-23T05:58:17.909Z,26.37
2023-05-23T06:00:57.414Z,29.37
2023-05-23T06:04:03.461Z,29.60
2023-05-23T06:06:48.343Z,30.92
2023-05-23T06:09:17.147Z,22.70
2023-05-23T06:12:16.400Z,20.20
2023-05-23T06:14:51.748Z,14.77
2023-05-23T06:17:19.833Z,13.25
2023-05-23T06:23:08.858Z,11.50
2023-05-23T06:25:37.155Z,13.90
2023-05-23T06:31:00.632Z,12.73
2023-05-23T06:36:49.076Z,11.30
2023-05-23T06:39:18.686Z,10.88
2023-05-23T06:41:48.221Z,9.10
2023-05-23T06:50:38.624Z,7.30
2023-05-23T06:53:07.978Z,9.05
2023-05-23T06:55:37.365Z,8.05
2023-05-23T06:58:05.819Z,11.12
2023-05-23T07:00:34.528Z,6.82
2023-05-23T07:03:04.053Z,6.65
2023-05-23T07:05:34.566Z,9.70
2023-05-23T07:08:03.099Z,8.90
2023-05-23T07:10:48.508Z,6.20
2023-05-23T07:13:19.102Z,8.77
2023-05-23T07:15:47.184Z,8.48
2023-05-23T07:18:15.311Z,7.93
2023-05-23T07:21:23.352Z,7.47
2023-05-23T07:23:51.723Z,7.37
2023-05-23T07:26:21.087Z,7.50
2023-05-23T07:28:51.425Z,6.20
2023-05-23T07:31:20.215Z,9.07
2023-05-23T07:33:48.340Z,7.07
2023-05-23T07:36:47.622Z,7.62
2023-05-23T07:39:24.508Z,6.18
2023-05-23T07:41:53.136Z,5.97
2023-05-23T07:44:29.305Z,7.07
2023-05-23T07:50:05.646Z,6.82
2023-05-23T07:52:34.016Z,6.05
2023-05-23T07:55:03.303Z,6.75
2023-05-23T07:57:32.350Z,5.22
2023-05-23T08:00:53.909Z,5.37
2023-05-23T08:06:20.838Z,6.15
2023-05-23T08:09:35.810Z,6.37
2023-05-23T08:12:23.946Z,5.45
2023-05-23T08:14:52.798Z,6.28
2023-05-23T08:18:31.115Z,4.45
2023-05-23T08:21:03.126Z,6.50
2023-05-23T08:23:31.781Z,4.45
2023-05-23T08:26:02.178Z,6.32
2023-05-23T08:28:34.641Z,5.68
2023-05-23T08:31:17.976Z,8.80
2023-05-23T08:33:47.370Z,7.97
2023-05-23T08:36:17.359Z,4.45
2023-05-23T08:38:46.510Z,7.78
2023-05-23T08:41:22.778Z,7.62
2023-05-23T08:44:21.400Z,4.25
2023-05-23T08:46:54.539Z,3.80
2023-05-23T08:49:39.428Z,4.03
2023-05-23T08:52:13.071Z,4.32
2023-05-23T08:54:53.515Z,4.00
2023-05-23T08:57:22.294Z,3.00
2023-05-23T08:59:56.575Z,4.07
2023-05-23T09:02:25.755Z,2.80
2023-05-23T09:04:54.820Z,3.17
2023-05-23T09:07:24.641Z,3.17
2023-05-23T09:09:53.508Z,3.42
2023-05-23T09:12:27.155Z,3.28
2023-05-23T09:14:57.842Z,3.05
2023-05-23T09:17:26.902Z,2.45
2023-05-23T09:19:55.086Z,8.63
2023-05-23T09:22:27.536Z,2.58
2023-05-23T09:25:48.008Z,2.25
2023-05-23T09:28:22.511Z,2.92
2023-05-23T09:36:56.974Z,5.45
2023-05-23T09:39:26.791Z,3.80
2023-05-23T09:41:54.956Z,2.72
2023-05-23T09:44:24.718Z,7.80
2023-05-23T09:46:55.339Z,4.85
2023-05-23T09:49:23.707Z,5.07
2023-05-23T09:52:01.348Z,4.37
2023-05-23T09:54:31.152Z,4.25
2023-05-23T09:57:01.996Z,3.15
2023-05-23T09:59:33.327Z,2.55
2023-05-23T10:06:06.947Z,2.00
2023-05-23T10:15:29.516Z,1.90
2023-05-23T10:21:51.558Z,5.28
2023-05-23T10:24:34.027Z,2.22
2023-05-23T10:27:04.485Z,3.60
2023-05-23T10:29:35.414Z,6.20
2023-05-23T10:32:05.689Z,7.70
2023-05-23T10:34:38.718Z,10.00
2023-05-23T10:37:18.515Z,4.87
2023-05-23T10:40:02.377Z,2.37
2023-05-23T10:46:22.794Z,3.47
2023-05-23T10:49:11.433Z,4.35
2023-05-23T10:55:28.134Z,1.27
2023-05-23T10:58:20.477Z,1.25
2023-05-23T11:01:02.487Z,4.28
2023-05-23T11:03:57.550Z,6.97
2023-05-23T11:06:41.277Z,3.08
2023-05-23T11:09:12.587Z,0.75
2023-05-23T11:12:05.993Z,0.68
2023-05-23T11:14:55.379Z,4.78
2023-05-23T11:17:51.159Z,2.00
2023-05-23T11:20:23.549Z,6.70
2023-05-23T11:23:09.188Z,7.82
2023-05-23T11:25:42.917Z,9.93
2023-05-23T11:28:11.839Z,6.40
2023-05-23T11:30:42.157Z,5.75
2023-05-23T11:33:18.702Z,10.40
2023-05-23T11:35:49.624Z,9.57
2023-05-23T11:38:18.581Z,5.50
2023-05-23T11:40:48.868Z,5.97
2023-05-23T11:43:26.776Z,2.40
2023-05-23T11:46:16.199Z,8.50
2023-05-23T11:51:36.437Z,3.22
2023-05-23T11:54:20.945Z,4.35
2023-05-23T11:57:36.548Z,11.90
2023-05-23T12:00:08.179Z,6.97
2023-05-23T12:02:40.106Z,5.85
2023-05-23T12:05:15.625Z,3.33
2023-05-23T12:07:47.388Z,3.30
2023-05-23T12:10:24.361Z,2.58
2023-05-23T12:12:53.528Z,2.33
2023-05-23T12:15:27.314Z,5.25
2023-05-23T12:17:57.012Z,4.07
2023-05-23T12:20:27.079Z,2.35
2023-05-23T12:22:58.108Z,2.03
2023-05-23T12:25:29.083Z,5.22
2023-05-23T12:27:58.158Z,1.70
2023-05-23T12:30:26.387Z,2.83
2023-05-23T12:32:55.384Z,3.28
2023-05-23T12:35:27.057Z,3.42
2023-05-23T12:37:58.988Z,2.40
2023-05-23T12:40:27.603Z,2.12
2023-05-23T12:43:00.364Z,2.60
2023-05-23T12:45:33.769Z,2.15
2023-05-23T12:48:15.538Z,4.15
2023-05-23T12:50:44.014Z,2.33
2023-05-23T12:53:13.417Z,4.03
2023-05-23T12:55:41.614Z,1.83
2023-05-23T12:58:31.419Z,2.10
2023-05-23T13:00:59.796Z,4.03
2023-05-23T13:03:31.147Z,3.95
2023-05-23T13:06:26.319Z,3.67
2023-05-23T13:09:30.461Z,2.75
2023-05-23T13:12:00.893Z,5.07
2023-05-23T13:14:29.209Z,2.15
2023-05-23T13:16:57.651Z,1.73
2023-05-23T13:19:28.690Z,2.22
2023-05-23T13:21:57.260Z,3.78
2023-05-23T13:24:25.403Z,1.75
2023-05-23T13:26:54.188Z,2.42
2023-05-23T13:29:24.093Z,1.58
2023-05-23T13:31:53.279Z,3.67
2023-05-23T13:34:31.537Z,3.05
2023-05-23T13:36:59.836Z,4.20
2023-05-23T13:39:38.591Z,3.97
2023-05-23T13:42:09.579Z,3.25
2023-05-23T13:44:40.428Z,2.75
2023-05-23T13:47:13.380Z,3.15
2023-05-23T13:49:42.038Z,3.47
2023-05-23T13:52:10.784Z,4.07
2023-05-23T13:54:40.492Z,4.87
2023-05-23T13:57:09.147Z,6.15
2023-05-23T13:59:38.803Z,3.30
2023-05-23T14:02:08.271Z,2.97
2023-05-23T14:04:36.851Z,3.78
2023-05-23T14:07:07.821Z,4.30
2023-05-23T14:09:36.215Z,3.17
2023-05-23T14:12:05.447Z,2.75
2023-05-23T14:14:33.706Z,2.95
2023-05-23T14:17:03.388Z,2.65
2023-05-23T14:19:32.056Z,6.22
2023-05-23T14:22:00.309Z,1.50
2023-05-23T14:24:28.456Z,3.12
2023-05-23T14:26:57.607Z,2.15
2023-05-23T14:29:26.223Z,1.42
2023-05-23T14:31:54.650Z,2.83
2023-05-23T14:34:25.787Z,2.72
2023-05-23T14:36:54.037Z,1.85
2023-05-23T14:39:22.659Z,1.37
2023-05-23T14:41:50.988Z,2.08
2023-05-23T14:44:19.168Z,1.65
2023-05-23T14:46:49.120Z,2.28
2023-05-23T14:49:18.592Z,0.95
2023-05-23T14:51:51.654Z,4.53
2023-05-23T14:54:20.550Z,2.40
2023-05-23T14:56:53.260Z,2.65
2023-05-23T14:59:22.114Z,1.62
2023-05-23T15:01:50.559Z,2.55
2023-05-23T15:04:19.130Z,5.05
2023-05-23T15:06:50.776Z,1.80
2023-05-23T15:09:23.636Z,3.45
2023-05-23T15:11:56.275Z,1.80
2023-05-23T15:14:29.268Z,3.58
2023-05-23T15:16:57.715Z,1.80
2023-05-23T15:19:26.045Z,3.25
2023-05-23T15:21:55.479Z,5.10
2023-05-23T15:24:23.839Z,6.82
2023-05-23T15:26:51.937Z,5.57
2023-05-23T15:29:20.134Z,2.85
2023-05-23T15:31:48.457Z,6.82
2023-05-23T15:34:16.722Z,4.45
2023-05-23T15:36:44.771Z,5.90
2023-05-23T15:39:14.890Z,8.27
2023-05-23T15:41:43.091Z,6.65
2023-05-23T15:44:15.005Z,5.70
2023-05-23T15:46:43.585Z,5.35
2023-05-23T15:49:24.560Z,7.00
2023-05-23T15:51:55.607Z,11.57
2023-05-23T15:54:25.639Z,6.82
2023-05-23T15:56:53.819Z,16.08
2023-05-23T15:59:22.322Z,9.32
2023-05-23T16:01:50.551Z,7.03
2023-05-23T16:04:18.977Z,5.00
2023-05-23T16:06:47.216Z,7.28
2023-05-23T16:09:15.393Z,6.62
2023-05-23T16:11:52.953Z,8.38
2023-05-23T16:14:21.054Z,4.53
2023-05-23T16:16:49.457Z,5.90
2023-05-23T16:19:17.685Z,6.68
2023-05-23T16:21:45.864Z,3.90
2023-05-23T16:24:16.999Z,7.62
2023-05-23T16:26:46.508Z,5.75
2023-05-23T16:29:21.029Z,3.58
2023-05-23T16:31:49.303Z,4.47
2023-05-23T16:34:39.602Z,7.95
2023-05-23T16:37:07.986Z,5.72
2023-05-23T16:39:36.416Z,7.57
2023-05-23T16:42:06.280Z,11.65
2023-05-23T16:44:34.327Z,6.15
2023-05-23T16:47:02.959Z,5.35
2023-05-23T16:50:01.890Z,7.80
2023-05-23T16:52:31.825Z,6.00
2023-05-23T16:54:59.823Z,8.35
2023-05-23T16:57:29.239Z,7.15
2023-05-23T16:59:57.683Z,7.60
2023-05-23T17:02:26.274Z,9.82
2023-05-23T17:04:55.749Z,5.18
2023-05-23T17:07:24.166Z,5.82
2023-05-23T17:09:52.485Z,4.35
2023-05-23T17:12:20.762Z,5.22
2023-05-23T17:14:50.816Z,8.68
2023-05-23T17:17:19.009Z,6.32
2023-05-23T17:19:49.501Z,5.90
2023-05-23T17:22:17.946Z,6.50
2023-05-23T17:24:45.984Z,9.27
2023-05-23T17:27:14.276Z,6.00
2023-05-23T17:29:42.858Z,4.05
2023-05-23T17:32:12.407Z,7.75
2023-05-23T17:34:40.736Z,10.07
2023-05-23T17:37:09.274Z,6.10
2023-05-23T17:39:37.493Z,3.80
2023-05-23T17:42:07.188Z,3.90
2023-05-23T17:44:44.493Z,6.40
2023-05-23T17:47:16.770Z,6.43
2023-05-23T17:49:46.058Z,2.80
2023-05-23T17:52:18.674Z,5.53
2023-05-23T17:54:59.016Z,7.03
2023-05-23T17:57:28.003Z,4.87
2023-05-23T17:59:56.610Z,7.32
2023-05-23T18:02:26.559Z,6.68
2023-05-23T18:09:25.632Z,10.73
2023-05-23T18:12:50.345Z,5.62
2023-05-23T18:15:40.410Z,6.43
2023-05-23T18:18:48.651Z,5.40
2023-05-23T18:21:36.468Z,5.65
2023-05-23T18:24:23.965Z,5.82
2023-05-23T18:27:06.472Z,6.00
2023-05-23T18:29:34.857Z,6.28
2023-05-23T18:32:07.155Z,8.13
2023-05-23T18:38:04.603Z,6.53
2023-05-23T18:40:33.721Z,5.40
2023-05-23T18:43:01.759Z,7.80
2023-05-23T18:45:30.048Z,10.07
2023-05-23T18:48:24.283Z,3.85
2023-05-23T18:50:52.334Z,5.62
2023-05-23T18:53:31.262Z,5.90
2023-05-23T18:56:16.263Z,6.93
2023-05-23T18:58:47.744Z,6.32
2023-05-23T19:01:15.888Z,6.22
2023-05-23T19:03:45.680Z,4.22
2023-05-23T19:06:19.864Z,7.70
2023-05-23T19:09:27.566Z,7.07
2023-05-23T19:12:14.955Z,7.90
2023-05-23T19:14:43.686Z,6.68
2023-05-23T19:17:12.370Z,7.70
2023-05-23T19:19:45.256Z,4.00
2023-05-23T19:22:13.650Z,6.05
2023-05-23T19:24:42.285Z,2.87
2023-05-23T19:27:17.288Z,9.57
2023-05-23T19:29:47.965Z,4.90
2023-05-23T19:32:18.903Z,6.22
2023-05-23T19:35:08.732Z,6.15
2023-05-23T19:37:39.943Z,5.10
2023-05-23T19:40:09.832Z,6.80
2023-05-23T19:42:56.162Z,8.35
2023-05-23T19:45:24.762Z,4.57
2023-05-23T19:48:09.699Z,7.40
2023-05-23T19:50:57.650Z,6.50
2023-05-23T19:56:58.127Z,5.55
2023-05-23T19:59:27.514Z,4.28
2023-05-23T20:01:55.857Z,7.03
2023-05-23T20:04:26.184Z,5.53
2023-05-23T20:06:54.491Z,11.82
2023-05-23T20:09:23.131Z,3.33
2023-05-23T20:11:51.625Z,10.68
2023-05-23T20:14:19.783Z,6.57
2023-05-23T20:16:49.301Z,5.72
2023-05-23T20:19:23.540Z,9.82
2023-05-23T20:22:14.728Z,6.95
2023-05-23T20:24:43.202Z,3.40
2023-05-23T20:27:12.154Z,7.15
2023-05-23T20:29:40.736Z,8.65
2023-05-23T20:32:10.535Z,7.82
2023-05-23T20:34:38.571Z,6.70
2023-05-23T20:37:06.649Z,6.62
2023-05-23T20:42:31.051Z,6.18
2023-05-23T20:45:04.967Z,4.12
2023-05-23T20:48:07.280Z,8.27
2023-05-23T20:50:36.605Z,4.87
2023-05-23T20:53:24.190Z,8.18
2023-05-23T20:55:52.863Z,5.55
2023-05-23T20:58:21.467Z,7.25
2023-05-23T21:00:50.832Z,6.75
2023-05-23T21:03:20.989Z,7.43
2023-05-23T21:06:19.032Z,6.15
2023-05-23T21:08:47.390Z,4.28
2023-05-23T21:11:16.261Z,8.82
2023-05-23T21:14:01.485Z,7.18
2023-05-23T21:16:31.304Z,5.97
2023-05-23T21:19:02.676Z,4.75
2023-05-23T21:21:31.153Z,5.82
2023-05-23T21:23:59.193Z,2.55
2023-05-23T21:30:30.650Z,4.90
2023-05-23T21:32:58.993Z,7.25
2023-05-23T21:39:43.331Z,6.05
2023-05-23T21:42:23.560Z,5.85
2023-05-23T21:45:15.199Z,6.53
2023-05-23T21:47:43.727Z,6.15
2023-05-23T21:50:27.579Z,4.40
2023-05-23T21:53:15.439Z,4.75
2023-05-23T22:02:04.551Z,9.43
2023-05-23T22:04:32.923Z,3.80
2023-05-23T22:07:01.157Z,4.40
2023-05-23T22:13:17.478Z,8.15
2023-05-23T22:18:52.557Z,6.00
2023-05-23T22:21:41.822Z,8.30
2023-05-23T22:24:29.582Z,11.10
2023-05-23T22:26:58.337Z,5.05
2023-05-23T22:29:26.404Z,4.37
2023-05-23T22:32:09.519Z,4.20
2023-05-23T22:34:39.532Z,5.80
2023-05-23T22:37:24.561Z,5.97
2023-05-23T22:39:52.959Z,5.62
2023-05-23T22:48:36.102Z,7.03
2023-05-23T22:51:07.351Z,9.55
2023-05-23T22:57:01.367Z,4.07
2023-05-23T23:03:19.511Z,8.95
2023-05-23T23:09:21.712Z,4.75
2023-05-23T23:11:50.068Z,5.93
2023-05-23T23:14:18.168Z,4.25
2023-05-23T23:16:49.814Z,6.68
2023-05-23T23:22:16.679Z,8.23
2023-05-23T23:27:53.665Z,7.37
2023-05-23T23:30:22.286Z,3.80
2023-05-23T23:32:50.286Z,4.03
2023-05-23T23:38:22.826Z,8.43
2023-05-23T23:40:51.002Z,7.35
2023-05-23T23:47:07.394Z,8.52
2023-05-23T23:49:37.153Z,6.18
2023-05-23T23:59:12.841Z,6.82
